Airfield :
LOGIN :

Register | Disclaimer

   EN    FR    IT 

 










Legend :    VFR   Marginal VFR   IFR   Intensive IFR   Very Intensive IFR
Visi :
Ceiling :
>= 8 km
>= 3000ft
5 to 8 km
1000 to 3000 ft
1500m to 5 km
500 to 1000 ft
800 to 1500m
200 to 500 ft
< 800m
< 200 ft
Symbols :   Thunderstorms  Fog  Heavy snow  Heavy precipitations  Wind > 20 kt
SIGMETs :     Misc.  Thunderstorms  Icing  Turbulence  Mountain Waves  Volcanic Ashes






- Airport Elevation : 401 ft
- IATA code : LEQ


EGHC - Land's End

CURRENT METAR :
  • 191520Z 12022KT 9999 FEW010 13/10 Q1003

EXPIRED METARs :
  • 191450Z 12021KT CAVOK 13/10 Q1004
  • 191420Z 13022KT CAVOK 13/10 Q1004
  • 191350Z 13022KT CAVOK 13/10 Q1005
  • 191320Z 13023KT 9999 FEW025 12/10 Q1005
  • 191250Z 13022KT CAVOK 13/10 Q1006

TAF TAF EGHC
Valid from the 19 at 15:00 until the 19 at 18:00 UTC


191358Z 1915/1918 13017KT 9999 FEW025
TEMPO 1915/1918 16020G30KT



MET'MAP, your aeronautical weather chart ! - Copyright ORBIFLY December 2007 - Disclaimer

ORBIFLY MET'MAP TEAM :

Programming & Development : Alexandra Zaïnal
Concept & original design : Baudouin d'Aumeries
Assistance for programming : Marc-Olivier Méhu
Technical & hardware support : Manuel Goepfert

Contact : metmap@orbifly.com




SOURCES & CREDITS :

   NOAA